Forside
METAR-TAF:

METAR-TAF

Lufthavne :

Rarotonga, Cookøerne

Breddekreds: 21-12S, længdekreds: 159-49W, højde: 7 m

Aktuelle vejr

Denne rapport blev lavet for 1 time og 11 minutter siden, kl. 01:00 UTC
Vind 10 kt fra nordnordøst
Temperatur 27°C
Fugtighed 79%
Tryk 1005 hPa
Sigt 10 km eller mere
Brudte skyer i en højde af 1500 ft
Brudte skyer i en højde af 10000 ft
let finregn

METAR: NCRG 170100Z 03010KT 9999 -DZ BKN015 BKN100 27/23 Q1005

Tid: 16:11 (02:11 UTC)

Vejrudsigter

Denne rapport blev lavet for 3 timer og 8 minutter siden, kl. 23:03 UTC
Foreløbig gælder fra 17 på 00 UTC til 17 på 24 UTC
Vind 6 kt fra østnordøst
Sigt 10 km eller mere
Spredte skyer i en højde af 1500 ft
Brudte skyer i en højde af 4000 ft
let regnbyger
Sandsynlighed 40% :
Midlertidig
fra 17 på 00 UTC til 17 på 24 UTC
Sigt: 3000 m
Brudte skyer i en højde af 1400 ft
Nogle få skyer i en højde af 1700 ft, Cumulonimbus.
tordenbyger, regn

TAF: NCRG 162303Z 1700/1724 06006KT 9999 -SHRA SCT015 BKN040 PROB40 TEMPO 1700/1724 3000 TSRA BKN014 FEW017CB

Vejrobservationer og prognoser fra mere end 4000 lufthavne (METAR og TAF).

De gule og røde prikker repræsenterer de meteorologiske stationer.

Flyt musen over at se navnet på stationen.

Så klik over at se vejr observationer og prognoser.

At skifte det kort: Klik på de grønne knapper med et sort kors for at zoome ind; på den grønne knap med en bindestreg for at zoome ud; eller på de grønne pile for tilstødende kort.


METAR-TAF: